sensor_id;sensor_type;location;lat;lon;timestamp;P1;durP1;ratioP1;P2;durP2;ratioP2
74904;SDS011;63465;50.862;6.220;2023-03-05T00:01:52;1.47;;;1.30;;
74904;SDS011;63465;50.862;6.220;2023-03-05T00:04:20;1.67;;;1.57;;
74904;SDS011;63465;50.862;6.220;2023-03-05T00:06:47;2.83;;;1.40;;
74904;SDS011;63465;50.862;6.220;2023-03-05T00:09:14;5.07;;;1.60;;
74904;SDS011;63465;50.862;6.220;2023-03-05T00:11:41;7.53;;;1.47;;
74904;SDS011;63465;50.862;6.220;2023-03-05T00:14:08;3.27;;;1.73;;
74904;SDS011;63465;50.862;6.220;2023-03-05T00:16:35;1.67;;;1.57;;
74904;SDS011;63465;50.862;6.220;2023-03-05T00:19:02;8.97;;;1.63;;
74904;SDS011;63465;50.862;6.220;2023-03-05T00:21:31;2.47;;;1.40;;
74904;SDS011;63465;50.862;6.220;2023-03-05T00:23:59;5.13;;;1.20;;
74904;SDS011;63465;50.862;6.220;2023-03-05T00:26:28;5.73;;;1.30;;
74904;SDS011;63465;50.862;6.220;2023-03-05T00:28:58;5.60;;;2.00;;
74904;SDS011;63465;50.862;6.220;2023-03-05T00:31:26;4.37;;;1.33;;
74904;SDS011;63465;50.862;6.220;2023-03-05T00:33:55;14.70;;;1.70;;
74904;SDS011;63465;50.862;6.220;2023-03-05T00:36:23;5.37;;;1.43;;
74904;SDS011;63465;50.862;6.220;2023-03-05T00:38:52;2.27;;;1.50;;
74904;SDS011;63465;50.862;6.220;2023-03-05T00:41:20;5.47;;;1.37;;
74904;SDS011;63465;50.862;6.220;2023-03-05T00:43:48;2.97;;;1.40;;
74904;SDS011;63465;50.862;6.220;2023-03-05T00:46:15;2.20;;;1.37;;
74904;SDS011;63465;50.862;6.220;2023-03-05T00:48:41;2.50;;;1.20;;
74904;SDS011;63465;50.862;6.220;2023-03-05T00:51:08;1.53;;;1.20;;
74904;SDS011;63465;50.862;6.220;2023-03-05T00:53:35;3.33;;;1.10;;
74904;SDS011;63465;50.862;6.220;2023-03-05T00:56:05;8.80;;;1.20;;
74904;SDS011;63465;50.862;6.220;2023-03-05T00:58:32;1.20;;;0.90;;
74904;SDS011;63465;50.862;6.220;2023-03-05T01:00:59;4.30;;;1.30;;
74904;SDS011;63465;50.862;6.220;2023-03-05T01:03:27;6.03;;;1.43;;
74904;SDS011;63465;50.862;6.220;2023-03-05T01:05:53;11.87;;;1.67;;
74904;SDS011;63465;50.862;6.220;2023-03-05T01:08:20;3.83;;;1.60;;
74904;SDS011;63465;50.862;6.220;2023-03-05T01:10:47;4.93;;;1.30;;
74904;SDS011;63465;50.862;6.220;2023-03-05T01:13:15;6.37;;;1.60;;
74904;SDS011;63465;50.862;6.220;2023-03-05T01:15:42;5.90;;;1.80;;
74904;SDS011;63465;50.862;6.220;2023-03-05T01:18:08;2.50;;;1.50;;
74904;SDS011;63465;50.862;6.220;2023-03-05T01:20:35;4.33;;;1.60;;
74904;SDS011;63465;50.862;6.220;2023-03-05T01:23:02;3.33;;;1.10;;
74904;SDS011;63465;50.862;6.220;2023-03-05T01:25:28;7.70;;;1.40;;
74904;SDS011;63465;50.862;6.220;2023-03-05T01:27:55;4.40;;;1.30;;
74904;SDS011;63465;50.862;6.220;2023-03-05T01:30:24;6.10;;;1.40;;
74904;SDS011;63465;50.862;6.220;2023-03-05T01:32:51;1.93;;;1.30;;
74904;SDS011;63465;50.862;6.220;2023-03-05T01:35:19;7.90;;;1.67;;
74904;SDS011;63465;50.862;6.220;2023-03-05T01:37:47;2.83;;;1.80;;
74904;SDS011;63465;50.862;6.220;2023-03-05T01:40:15;3.00;;;1.50;;
74904;SDS011;63465;50.862;6.220;2023-03-05T01:42:45;4.90;;;1.77;;
74904;SDS011;63465;50.862;6.220;2023-03-05T01:45:13;7.30;;;1.83;;
74904;SDS011;63465;50.862;6.220;2023-03-05T01:47:44;9.03;;;1.70;;
74904;SDS011;63465;50.862;6.220;2023-03-05T01:50:12;2.73;;;1.47;;
74904;SDS011;63465;50.862;6.220;2023-03-05T01:52:42;1.60;;;1.50;;
74904;SDS011;63465;50.862;6.220;2023-03-05T01:55:12;4.13;;;1.63;;
74904;SDS011;63465;50.862;6.220;2023-03-05T01:57:41;3.80;;;1.73;;
74904;SDS011;63465;50.862;6.220;2023-03-05T02:00:12;3.60;;;1.40;;
74904;SDS011;63465;50.862;6.220;2023-03-05T02:02:40;3.80;;;1.40;;
74904;SDS011;63465;50.862;6.220;2023-03-05T02:05:11;6.13;;;1.53;;
74904;SDS011;63465;50.862;6.220;2023-03-05T02:07:41;6.57;;;1.80;;
74904;SDS011;63465;50.862;6.220;2023-03-05T02:10:16;3.40;;;1.90;;
74904;SDS011;63465;50.862;6.220;2023-03-05T02:12:44;5.77;;;1.63;;
74904;SDS011;63465;50.862;6.220;2023-03-05T02:15:12;6.23;;;2.00;;
74904;SDS011;63465;50.862;6.220;2023-03-05T02:17:39;4.17;;;1.30;;
74904;SDS011;63465;50.862;6.220;2023-03-05T02:20:07;4.30;;;1.60;;
74904;SDS011;63465;50.862;6.220;2023-03-05T02:22:39;2.93;;;1.70;;
74904;SDS011;63465;50.862;6.220;2023-03-05T02:25:12;2.00;;;1.50;;
74904;SDS011;63465;50.862;6.220;2023-03-05T02:27:42;3.63;;;1.77;;
74904;SDS011;63465;50.862;6.220;2023-03-05T02:30:12;4.43;;;2.20;;
74904;SDS011;63465;50.862;6.220;2023-03-05T02:32:39;8.27;;;2.00;;
74904;SDS011;63465;50.862;6.220;2023-03-05T02:35:06;8.03;;;2.00;;
74904;SDS011;63465;50.862;6.220;2023-03-05T02:37:33;5.27;;;1.63;;
74904;SDS011;63465;50.862;6.220;2023-03-05T02:40:02;5.90;;;1.80;;
74904;SDS011;63465;50.862;6.220;2023-03-05T02:42:29;6.27;;;2.30;;
74904;SDS011;63465;50.862;6.220;2023-03-05T02:44:58;7.07;;;1.53;;
74904;SDS011;63465;50.862;6.220;2023-03-05T02:47:25;5.70;;;1.57;;
74904;SDS011;63465;50.862;6.220;2023-03-05T02:49:53;5.53;;;1.90;;
74904;SDS011;63465;50.862;6.220;2023-03-05T02:52:21;4.77;;;1.80;;
74904;SDS011;63465;50.862;6.220;2023-03-05T02:54:49;4.77;;;1.60;;
74904;SDS011;63465;50.862;6.220;2023-03-05T02:57:17;9.23;;;1.90;;
74904;SDS011;63465;50.862;6.220;2023-03-05T02:59:44;4.10;;;1.50;;
74904;SDS011;63465;50.862;6.220;2023-03-05T03:02:12;5.47;;;1.83;;
74904;SDS011;63465;50.862;6.220;2023-03-05T03:04:39;7.70;;;2.23;;
74904;SDS011;63465;50.862;6.220;2023-03-05T03:07:05;8.33;;;1.80;;
74904;SDS011;63465;50.862;6.220;2023-03-05T03:09:32;4.57;;;1.70;;
74904;SDS011;63465;50.862;6.220;2023-03-05T03:12:00;10.03;;;1.73;;
74904;SDS011;63465;50.862;6.220;2023-03-05T03:14:29;3.00;;;1.67;;
74904;SDS011;63465;50.862;6.220;2023-03-05T03:16:56;4.17;;;2.00;;
74904;SDS011;63465;50.862;6.220;2023-03-05T03:19:23;5.27;;;1.73;;
74904;SDS011;63465;50.862;6.220;2023-03-05T03:21:50;3.33;;;1.87;;
74904;SDS011;63465;50.862;6.220;2023-03-05T03:24:19;10.13;;;2.27;;
74904;SDS011;63465;50.862;6.220;2023-03-05T03:26:46;4.00;;;1.73;;
74904;SDS011;63465;50.862;6.220;2023-03-05T03:29:14;8.03;;;2.00;;
74904;SDS011;63465;50.862;6.220;2023-03-05T03:31:43;7.87;;;2.33;;
74904;SDS011;63465;50.862;6.220;2023-03-05T03:34:10;9.93;;;1.83;;
74904;SDS011;63465;50.862;6.220;2023-03-05T03:36:39;5.43;;;2.20;;
74904;SDS011;63465;50.862;6.220;2023-03-05T03:39:06;5.13;;;1.57;;
74904;SDS011;63465;50.862;6.220;2023-03-05T03:41:34;4.73;;;1.83;;
74904;SDS011;63465;50.862;6.220;2023-03-05T03:44:00;3.50;;;2.00;;
74904;SDS011;63465;50.862;6.220;2023-03-05T03:46:29;8.80;;;2.30;;
74904;SDS011;63465;50.862;6.220;2023-03-05T03:48:57;4.50;;;1.70;;
74904;SDS011;63465;50.862;6.220;2023-03-05T03:51:23;2.53;;;1.73;;
74904;SDS011;63465;50.862;6.220;2023-03-05T03:53:50;5.50;;;2.33;;
74904;SDS011;63465;50.862;6.220;2023-03-05T03:56:17;8.17;;;1.77;;
74904;SDS011;63465;50.862;6.220;2023-03-05T03:58:44;7.70;;;2.03;;
74904;SDS011;63465;50.862;6.220;2023-03-05T04:01:10;4.50;;;1.70;;
74904;SDS011;63465;50.862;6.220;2023-03-05T04:03:37;7.47;;;2.03;;
74904;SDS011;63465;50.862;6.220;2023-03-05T04:06:05;10.57;;;2.20;;
74904;SDS011;63465;50.862;6.220;2023-03-05T04:08:32;7.00;;;2.13;;
74904;SDS011;63465;50.862;6.220;2023-03-05T04:10:59;6.07;;;2.47;;
74904;SDS011;63465;50.862;6.220;2023-03-05T04:13:26;14.77;;;3.30;;
74904;SDS011;63465;50.862;6.220;2023-03-05T04:15:53;7.23;;;2.80;;
74904;SDS011;63465;50.862;6.220;2023-03-05T04:18:19;6.13;;;2.17;;
74904;SDS011;63465;50.862;6.220;2023-03-05T04:20:46;5.00;;;2.57;;
74904;SDS011;63465;50.862;6.220;2023-03-05T04:23:15;5.20;;;2.50;;
74904;SDS011;63465;50.862;6.220;2023-03-05T04:25:42;2.60;;;2.40;;
74904;SDS011;63465;50.862;6.220;2023-03-05T04:28:09;9.13;;;2.70;;
74904;SDS011;63465;50.862;6.220;2023-03-05T04:30:36;9.57;;;2.90;;
74904;SDS011;63465;50.862;6.220;2023-03-05T04:33:03;14.00;;;3.17;;
74904;SDS011;63465;50.862;6.220;2023-03-05T04:35:29;3.67;;;3.10;;
74904;SDS011;63465;50.862;6.220;2023-03-05T04:37:57;11.83;;;3.00;;
74904;SDS011;63465;50.862;6.220;2023-03-05T04:40:25;3.83;;;2.57;;
74904;SDS011;63465;50.862;6.220;2023-03-05T04:42:51;5.23;;;3.33;;
74904;SDS011;63465;50.862;6.220;2023-03-05T04:45:18;5.93;;;2.77;;
74904;SDS011;63465;50.862;6.220;2023-03-05T04:47:45;5.13;;;3.03;;
74904;SDS011;63465;50.862;6.220;2023-03-05T04:50:12;7.00;;;2.20;;
74904;SDS011;63465;50.862;6.220;2023-03-05T04:52:38;9.40;;;2.87;;
74904;SDS011;63465;50.862;6.220;2023-03-05T04:55:06;3.83;;;2.23;;
74904;SDS011;63465;50.862;6.220;2023-03-05T04:57:35;11.47;;;2.80;;
74904;SDS011;63465;50.862;6.220;2023-03-05T05:00:02;9.03;;;3.07;;
74904;SDS011;63465;50.862;6.220;2023-03-05T05:02:31;8.83;;;2.60;;
74904;SDS011;63465;50.862;6.220;2023-03-05T05:04:57;5.30;;;2.60;;
74904;SDS011;63465;50.862;6.220;2023-03-05T05:07:24;14.37;;;3.07;;
74904;SDS011;63465;50.862;6.220;2023-03-05T05:09:51;5.87;;;2.70;;
74904;SDS011;63465;50.862;6.220;2023-03-05T05:12:17;8.40;;;2.30;;
74904;SDS011;63465;50.862;6.220;2023-03-05T05:14:46;3.87;;;2.40;;
74904;SDS011;63465;50.862;6.220;2023-03-05T05:17:12;8.20;;;2.97;;
74904;SDS011;63465;50.862;6.220;2023-03-05T05:19:39;5.83;;;2.77;;
74904;SDS011;63465;50.862;6.220;2023-03-05T05:22:06;6.57;;;2.40;;
74904;SDS011;63465;50.862;6.220;2023-03-05T05:24:32;4.93;;;2.13;;
74904;SDS011;63465;50.862;6.220;2023-03-05T05:26:59;2.97;;;2.30;;
74904;SDS011;63465;50.862;6.220;2023-03-05T05:29:26;8.13;;;2.67;;
74904;SDS011;63465;50.862;6.220;2023-03-05T05:31:54;6.40;;;2.73;;
74904;SDS011;63465;50.862;6.220;2023-03-05T05:34:20;6.33;;;2.30;;
74904;SDS011;63465;50.862;6.220;2023-03-05T05:36:49;11.30;;;4.13;;
74904;SDS011;63465;50.862;6.220;2023-03-05T05:39:16;7.83;;;2.57;;
74904;SDS011;63465;50.862;6.220;2023-03-05T05:41:42;5.70;;;2.60;;
74904;SDS011;63465;50.862;6.220;2023-03-05T05:44:09;5.20;;;2.67;;
74904;SDS011;63465;50.862;6.220;2023-03-05T05:46:36;3.87;;;2.33;;
74904;SDS011;63465;50.862;6.220;2023-03-05T05:49:04;8.60;;;2.80;;
74904;SDS011;63465;50.862;6.220;2023-03-05T05:51:31;6.93;;;3.10;;
74904;SDS011;63465;50.862;6.220;2023-03-05T05:53:58;8.00;;;2.47;;
74904;SDS011;63465;50.862;6.220;2023-03-05T05:56:25;4.90;;;3.03;;
74904;SDS011;63465;50.862;6.220;2023-03-05T05:58:52;3.60;;;2.87;;
74904;SDS011;63465;50.862;6.220;2023-03-05T06:01:20;5.23;;;2.50;;
74904;SDS011;63465;50.862;6.220;2023-03-05T06:03:48;9.57;;;2.70;;
74904;SDS011;63465;50.862;6.220;2023-03-05T06:06:17;3.50;;;2.17;;
74904;SDS011;63465;50.862;6.220;2023-03-05T06:08:45;8.80;;;3.17;;
74904;SDS011;63465;50.862;6.220;2023-03-05T06:11:12;5.77;;;2.27;;
74904;SDS011;63465;50.862;6.220;2023-03-05T06:13:39;10.70;;;2.20;;
74904;SDS011;63465;50.862;6.220;2023-03-05T06:16:07;11.93;;;3.43;;
74904;SDS011;63465;50.862;6.220;2023-03-05T06:18:36;13.53;;;2.73;;
74904;SDS011;63465;50.862;6.220;2023-03-05T06:21:03;2.83;;;2.63;;
74904;SDS011;63465;50.862;6.220;2023-03-05T06:23:33;4.70;;;2.70;;
74904;SDS011;63465;50.862;6.220;2023-03-05T06:26:00;6.80;;;2.47;;
74904;SDS011;63465;50.862;6.220;2023-03-05T06:28:28;12.73;;;2.73;;
74904;SDS011;63465;50.862;6.220;2023-03-05T06:30:59;2.90;;;2.30;;
74904;SDS011;63465;50.862;6.220;2023-03-05T06:33:27;5.87;;;3.30;;
74904;SDS011;63465;50.862;6.220;2023-03-05T06:35:54;4.50;;;2.40;;
74904;SDS011;63465;50.862;6.220;2023-03-05T06:38:21;6.50;;;3.20;;
74904;SDS011;63465;50.862;6.220;2023-03-05T06:40:49;6.10;;;3.10;;
74904;SDS011;63465;50.862;6.220;2023-03-05T06:43:16;5.20;;;2.90;;
74904;SDS011;63465;50.862;6.220;2023-03-05T06:45:43;10.03;;;2.97;;
74904;SDS011;63465;50.862;6.220;2023-03-05T06:48:10;10.80;;;3.37;;
74904;SDS011;63465;50.862;6.220;2023-03-05T06:50:37;5.47;;;3.10;;
74904;SDS011;63465;50.862;6.220;2023-03-05T06:53:03;8.30;;;2.77;;
74904;SDS011;63465;50.862;6.220;2023-03-05T06:55:30;7.03;;;2.90;;
74904;SDS011;63465;50.862;6.220;2023-03-05T06:58:05;3.67;;;2.60;;
74904;SDS011;63465;50.862;6.220;2023-03-05T07:00:32;4.77;;;2.70;;
74904;SDS011;63465;50.862;6.220;2023-03-05T07:02:59;6.07;;;2.60;;
74904;SDS011;63465;50.862;6.220;2023-03-05T07:05:26;7.33;;;2.67;;
74904;SDS011;63465;50.862;6.220;2023-03-05T07:07:53;14.60;;;7.40;;
74904;SDS011;63465;50.862;6.220;2023-03-05T07:10:19;9.30;;;3.90;;
74904;SDS011;63465;50.862;6.220;2023-03-05T07:12:46;7.30;;;3.27;;
74904;SDS011;63465;50.862;6.220;2023-03-05T07:15:14;6.83;;;3.37;;
74904;SDS011;63465;50.862;6.220;2023-03-05T07:17:41;4.60;;;2.63;;
74904;SDS011;63465;50.862;6.220;2023-03-05T07:20:08;5.13;;;3.07;;
74904;SDS011;63465;50.862;6.220;2023-03-05T07:22:36;7.70;;;3.37;;
74904;SDS011;63465;50.862;6.220;2023-03-05T07:25:03;14.07;;;3.80;;
74904;SDS011;63465;50.862;6.220;2023-03-05T07:27:33;13.30;;;3.10;;
74904;SDS011;63465;50.862;6.220;2023-03-05T07:30:00;9.10;;;4.67;;
74904;SDS011;63465;50.862;6.220;2023-03-05T07:32:28;8.37;;;4.03;;
74904;SDS011;63465;50.862;6.220;2023-03-05T07:34:55;6.53;;;3.40;;
74904;SDS011;63465;50.862;6.220;2023-03-05T07:37:22;4.20;;;3.23;;
74904;SDS011;63465;50.862;6.220;2023-03-05T07:39:48;7.33;;;3.37;;
74904;SDS011;63465;50.862;6.220;2023-03-05T07:42:15;11.93;;;4.03;;
74904;SDS011;63465;50.862;6.220;2023-03-05T07:44:55;6.50;;;3.93;;
74904;SDS011;63465;50.862;6.220;2023-03-05T07:47:21;7.73;;;3.73;;
74904;SDS011;63465;50.862;6.220;2023-03-05T07:49:51;8.30;;;3.03;;
74904;SDS011;63465;50.862;6.220;2023-03-05T07:52:17;6.80;;;3.83;;
74904;SDS011;63465;50.862;6.220;2023-03-05T07:54:44;8.50;;;3.83;;
74904;SDS011;63465;50.862;6.220;2023-03-05T07:57:11;5.70;;;3.33;;
74904;SDS011;63465;50.862;6.220;2023-03-05T07:59:38;4.73;;;3.40;;
74904;SDS011;63465;50.862;6.220;2023-03-05T08:02:05;4.33;;;2.90;;
74904;SDS011;63465;50.862;6.220;2023-03-05T08:04:32;4.90;;;3.30;;
74904;SDS011;63465;50.862;6.220;2023-03-05T08:07:00;18.20;;;8.40;;
74904;SDS011;63465;50.862;6.220;2023-03-05T08:09:27;10.73;;;6.57;;
74904;SDS011;63465;50.862;6.220;2023-03-05T08:11:54;8.90;;;5.67;;
74904;SDS011;63465;50.862;6.220;2023-03-05T08:14:21;8.70;;;4.47;;
74904;SDS011;63465;50.862;6.220;2023-03-05T08:16:48;6.37;;;3.40;;
74904;SDS011;63465;50.862;6.220;2023-03-05T08:19:16;7.50;;;3.63;;
74904;SDS011;63465;50.862;6.220;2023-03-05T08:21:44;6.23;;;3.20;;
74904;SDS011;63465;50.862;6.220;2023-03-05T08:24:13;12.20;;;4.60;;
74904;SDS011;63465;50.862;6.220;2023-03-05T08:26:40;9.40;;;3.57;;
74904;SDS011;63465;50.862;6.220;2023-03-05T08:29:07;12.60;;;3.70;;
74904;SDS011;63465;50.862;6.220;2023-03-05T08:31:35;7.60;;;4.37;;
74904;SDS011;63465;50.862;6.220;2023-03-05T08:34:03;5.97;;;3.50;;
74904;SDS011;63465;50.862;6.220;2023-03-05T08:36:30;4.23;;;3.70;;
74904;SDS011;63465;50.862;6.220;2023-03-05T08:38:57;8.67;;;4.30;;
74904;SDS011;63465;50.862;6.220;2023-03-05T08:41:26;9.13;;;3.40;;
74904;SDS011;63465;50.862;6.220;2023-03-05T08:43:52;8.53;;;5.30;;
74904;SDS011;63465;50.862;6.220;2023-03-05T08:46:20;7.90;;;3.70;;
74904;SDS011;63465;50.862;6.220;2023-03-05T08:48:46;11.97;;;3.97;;
74904;SDS011;63465;50.862;6.220;2023-03-05T08:51:14;7.27;;;4.60;;
74904;SDS011;63465;50.862;6.220;2023-03-05T08:53:43;5.57;;;3.83;;
74904;SDS011;63465;50.862;6.220;2023-03-05T08:56:11;11.00;;;3.93;;
74904;SDS011;63465;50.862;6.220;2023-03-05T08:58:39;6.63;;;3.93;;
74904;SDS011;63465;50.862;6.220;2023-03-05T09:01:06;6.17;;;3.70;;
74904;SDS011;63465;50.862;6.220;2023-03-05T09:03:32;8.23;;;4.40;;
74904;SDS011;63465;50.862;6.220;2023-03-05T09:06:00;8.87;;;5.20;;
74904;SDS011;63465;50.862;6.220;2023-03-05T09:08:27;10.40;;;4.90;;
74904;SDS011;63465;50.862;6.220;2023-03-05T09:10:54;6.90;;;4.73;;
74904;SDS011;63465;50.862;6.220;2023-03-05T09:13:21;6.23;;;4.40;;
74904;SDS011;63465;50.862;6.220;2023-03-05T09:15:54;11.80;;;5.20;;
74904;SDS011;63465;50.862;6.220;2023-03-05T09:18:20;7.43;;;4.10;;
74904;SDS011;63465;50.862;6.220;2023-03-05T09:20:47;10.43;;;5.20;;
74904;SDS011;63465;50.862;6.220;2023-03-05T09:23:14;7.10;;;4.40;;
74904;SDS011;63465;50.862;6.220;2023-03-05T09:25:40;10.10;;;4.90;;
74904;SDS011;63465;50.862;6.220;2023-03-05T09:28:07;6.03;;;3.90;;
74904;SDS011;63465;50.862;6.220;2023-03-05T09:30:34;9.77;;;5.00;;
74904;SDS011;63465;50.862;6.220;2023-03-05T09:33:02;7.07;;;4.60;;
74904;SDS011;63465;50.862;6.220;2023-03-05T09:35:29;9.73;;;5.20;;
74904;SDS011;63465;50.862;6.220;2023-03-05T09:37:59;12.40;;;5.90;;
74904;SDS011;63465;50.862;6.220;2023-03-05T09:40:26;7.97;;;5.73;;
74904;SDS011;63465;50.862;6.220;2023-03-05T09:43:04;12.80;;;6.10;;
74904;SDS011;63465;50.862;6.220;2023-03-05T09:45:43;11.00;;;6.27;;
74904;SDS011;63465;50.862;6.220;2023-03-05T09:48:25;9.57;;;6.77;;
74904;SDS011;63465;50.862;6.220;2023-03-05T09:51:06;11.97;;;6.67;;
74904;SDS011;63465;50.862;6.220;2023-03-05T09:53:42;15.10;;;8.10;;
74904;SDS011;63465;50.862;6.220;2023-03-05T09:56:13;13.30;;;7.90;;
74904;SDS011;63465;50.862;6.220;2023-03-05T09:58:45;14.20;;;9.10;;
74904;SDS011;63465;50.862;6.220;2023-03-05T10:01:15;21.47;;;9.23;;
74904;SDS011;63465;50.862;6.220;2023-03-05T10:03:49;13.17;;;8.03;;
74904;SDS011;63465;50.862;6.220;2023-03-05T10:06:22;12.13;;;8.47;;
74904;SDS011;63465;50.862;6.220;2023-03-05T10:08:52;15.00;;;8.83;;
74904;SDS011;63465;50.862;6.220;2023-03-05T10:14:10;16.30;;;7.87;;
74904;SDS011;63465;50.862;6.220;2023-03-05T10:16:46;12.17;;;7.13;;
74904;SDS011;63465;50.862;6.220;2023-03-05T10:19:26;13.90;;;7.77;;
74904;SDS011;63465;50.862;6.220;2023-03-05T10:22:12;12.93;;;7.03;;
74904;SDS011;63465;50.862;6.220;2023-03-05T10:24:47;15.93;;;7.70;;
74904;SDS011;63465;50.862;6.220;2023-03-05T10:27:31;13.37;;;7.60;;
74904;SDS011;63465;50.862;6.220;2023-03-05T10:30:07;16.07;;;8.70;;
74904;SDS011;63465;50.862;6.220;2023-03-05T10:32:46;12.73;;;7.60;;
74904;SDS011;63465;50.862;6.220;2023-03-05T10:35:21;15.20;;;9.30;;
74904;SDS011;63465;50.862;6.220;2023-03-05T10:38:04;12.33;;;8.67;;
74904;SDS011;63465;50.862;6.220;2023-03-05T10:40:43;16.43;;;9.00;;
74904;SDS011;63465;50.862;6.220;2023-03-05T10:43:15;15.30;;;9.60;;
74904;SDS011;63465;50.862;6.220;2023-03-05T10:45:49;14.37;;;9.13;;
74904;SDS011;63465;50.862;6.220;2023-03-05T10:48:21;16.53;;;8.70;;
74904;SDS011;63465;50.862;6.220;2023-03-05T10:50:56;17.57;;;10.17;;
74904;SDS011;63465;50.862;6.220;2023-03-05T10:53:27;15.70;;;10.00;;
74904;SDS011;63465;50.862;6.220;2023-03-05T10:55:59;19.73;;;9.50;;
74904;SDS011;63465;50.862;6.220;2023-03-05T10:58:26;14.47;;;8.63;;
74904;SDS011;63465;50.862;6.220;2023-03-05T11:00:57;12.87;;;8.87;;
74904;SDS011;63465;50.862;6.220;2023-03-05T11:03:31;20.80;;;10.20;;
74904;SDS011;63465;50.862;6.220;2023-03-05T11:06:13;15.90;;;8.60;;
74904;SDS011;63465;50.862;6.220;2023-03-05T11:08:41;13.50;;;7.63;;
74904;SDS011;63465;50.862;6.220;2023-03-05T11:11:12;8.87;;;6.93;;
74904;SDS011;63465;50.862;6.220;2023-03-05T11:13:55;10.10;;;6.50;;
74904;SDS011;63465;50.862;6.220;2023-03-05T11:16:25;8.37;;;5.90;;
74904;SDS011;63465;50.862;6.220;2023-03-05T11:21:44;12.17;;;6.33;;
74904;SDS011;63465;50.862;6.220;2023-03-05T11:24:13;13.93;;;6.63;;
74904;SDS011;63465;50.862;6.220;2023-03-05T11:26:44;9.40;;;5.50;;
74904;SDS011;63465;50.862;6.220;2023-03-05T11:29:20;6.00;;;4.93;;
74904;SDS011;63465;50.862;6.220;2023-03-05T11:31:49;31.63;;;15.07;;
74904;SDS011;63465;50.862;6.220;2023-03-05T11:34:21;16.43;;;9.17;;
74904;SDS011;63465;50.862;6.220;2023-03-05T11:36:58;10.13;;;6.70;;
74904;SDS011;63465;50.862;6.220;2023-03-05T11:39:29;10.17;;;6.60;;
74904;SDS011;63465;50.862;6.220;2023-03-05T11:41:59;8.80;;;4.70;;
74904;SDS011;63465;50.862;6.220;2023-03-05T11:44:31;8.17;;;4.90;;
74904;SDS011;63465;50.862;6.220;2023-03-05T11:47:08;12.03;;;6.90;;
74904;SDS011;63465;50.862;6.220;2023-03-05T11:49:43;14.80;;;5.63;;
74904;SDS011;63465;50.862;6.220;2023-03-05T11:52:13;6.00;;;4.70;;
74904;SDS011;63465;50.862;6.220;2023-03-05T11:54:47;5.30;;;4.80;;
74904;SDS011;63465;50.862;6.220;2023-03-05T11:57:22;12.63;;;4.60;;
74904;SDS011;63465;50.862;6.220;2023-03-05T11:59:49;4.33;;;3.93;;
74904;SDS011;63465;50.862;6.220;2023-03-05T12:02:19;8.33;;;4.50;;
74904;SDS011;63465;50.862;6.220;2023-03-05T12:04:48;4.77;;;4.33;;
74904;SDS011;63465;50.862;6.220;2023-03-05T12:07:18;8.27;;;5.03;;
74904;SDS011;63465;50.862;6.220;2023-03-05T12:09:48;5.20;;;4.70;;
74904;SDS011;63465;50.862;6.220;2023-03-05T12:12:20;5.87;;;4.00;;
74904;SDS011;63465;50.862;6.220;2023-03-05T12:15:01;5.30;;;4.03;;
74904;SDS011;63465;50.862;6.220;2023-03-05T12:17:48;5.93;;;4.40;;
74904;SDS011;63465;50.862;6.220;2023-03-05T12:20:26;8.23;;;4.40;;
74904;SDS011;63465;50.862;6.220;2023-03-05T12:23:01;10.83;;;6.40;;
74904;SDS011;63465;50.862;6.220;2023-03-05T12:25:30;8.77;;;4.70;;
74904;SDS011;63465;50.862;6.220;2023-03-05T12:27:58;4.73;;;4.20;;
74904;SDS011;63465;50.862;6.220;2023-03-05T12:33:34;6.83;;;3.30;;
74904;SDS011;63465;50.862;6.220;2023-03-05T12:38:59;4.80;;;3.90;;
74904;SDS011;63465;50.862;6.220;2023-03-05T12:49:43;6.30;;;4.23;;
74904;SDS011;63465;50.862;6.220;2023-03-05T12:52:11;5.03;;;4.13;;
74904;SDS011;63465;50.862;6.220;2023-03-05T12:57:49;5.73;;;4.73;;
74904;SDS011;63465;50.862;6.220;2023-03-05T13:00:21;6.53;;;4.87;;
74904;SDS011;63465;50.862;6.220;2023-03-05T13:02:53;5.70;;;4.90;;
74904;SDS011;63465;50.862;6.220;2023-03-05T13:05:24;5.50;;;5.00;;
74904;SDS011;63465;50.862;6.220;2023-03-05T13:08:07;7.93;;;5.60;;
74904;SDS011;63465;50.862;6.220;2023-03-05T13:10:37;9.20;;;4.83;;
74904;SDS011;63465;50.862;6.220;2023-03-05T13:13:03;7.13;;;5.67;;
74904;SDS011;63465;50.862;6.220;2023-03-05T13:15:30;6.07;;;5.10;;
74904;SDS011;63465;50.862;6.220;2023-03-05T13:17:58;6.17;;;4.80;;
74904;SDS011;63465;50.862;6.220;2023-03-05T13:20:28;10.30;;;5.20;;
74904;SDS011;63465;50.862;6.220;2023-03-05T13:23:03;7.07;;;5.20;;
74904;SDS011;63465;50.862;6.220;2023-03-05T13:25:42;6.57;;;5.40;;
74904;SDS011;63465;50.862;6.220;2023-03-05T13:28:11;9.77;;;5.40;;
74904;SDS011;63465;50.862;6.220;2023-03-05T13:30:42;9.60;;;5.70;;
74904;SDS011;63465;50.862;6.220;2023-03-05T13:33:15;9.47;;;6.30;;
74904;SDS011;63465;50.862;6.220;2023-03-05T13:35:43;7.70;;;5.20;;
74904;SDS011;63465;50.862;6.220;2023-03-05T13:38:14;7.80;;;5.50;;
74904;SDS011;63465;50.862;6.220;2023-03-05T13:41:00;6.93;;;5.37;;
74904;SDS011;63465;50.862;6.220;2023-03-05T13:43:33;11.50;;;6.50;;
74904;SDS011;63465;50.862;6.220;2023-03-05T13:46:00;12.20;;;5.93;;
74904;SDS011;63465;50.862;6.220;2023-03-05T13:48:26;6.90;;;5.10;;
74904;SDS011;63465;50.862;6.220;2023-03-05T13:50:54;7.50;;;5.43;;
74904;SDS011;63465;50.862;6.220;2023-03-05T13:53:23;12.60;;;7.50;;
74904;SDS011;63465;50.862;6.220;2023-03-05T13:55:52;6.13;;;4.73;;
74904;SDS011;63465;50.862;6.220;2023-03-05T14:01:13;8.43;;;5.40;;
74904;SDS011;63465;50.862;6.220;2023-03-05T14:03:43;6.43;;;5.33;;
74904;SDS011;63465;50.862;6.220;2023-03-05T14:06:14;8.00;;;5.97;;
74904;SDS011;63465;50.862;6.220;2023-03-05T14:08:47;6.53;;;5.90;;
74904;SDS011;63465;50.862;6.220;2023-03-05T14:11:16;6.80;;;5.30;;
74904;SDS011;63465;50.862;6.220;2023-03-05T14:13:46;8.90;;;5.20;;
74904;SDS011;63465;50.862;6.220;2023-03-05T14:16:14;5.60;;;4.90;;
74904;SDS011;63465;50.862;6.220;2023-03-05T14:18:53;8.37;;;5.50;;
74904;SDS011;63465;50.862;6.220;2023-03-05T14:21:21;9.07;;;5.83;;
74904;SDS011;63465;50.862;6.220;2023-03-05T14:23:49;6.60;;;5.63;;
74904;SDS011;63465;50.862;6.220;2023-03-05T14:26:24;7.93;;;5.70;;
74904;SDS011;63465;50.862;6.220;2023-03-05T14:28:54;7.90;;;6.30;;
74904;SDS011;63465;50.862;6.220;2023-03-05T14:31:23;7.70;;;5.40;;
74904;SDS011;63465;50.862;6.220;2023-03-05T14:33:51;15.13;;;8.77;;
74904;SDS011;63465;50.862;6.220;2023-03-05T14:36:19;40.13;;;16.40;;
74904;SDS011;63465;50.862;6.220;2023-03-05T14:38:49;14.20;;;8.10;;
74904;SDS011;63465;50.862;6.220;2023-03-05T14:41:20;11.90;;;7.10;;
74904;SDS011;63465;50.862;6.220;2023-03-05T14:43:57;13.23;;;6.90;;
74904;SDS011;63465;50.862;6.220;2023-03-05T14:46:24;27.63;;;12.10;;
74904;SDS011;63465;50.862;6.220;2023-03-05T14:48:50;46.90;;;15.97;;
74904;SDS011;63465;50.862;6.220;2023-03-05T14:51:18;34.63;;;15.80;;
74904;SDS011;63465;50.862;6.220;2023-03-05T14:53:46;28.83;;;12.93;;
74904;SDS011;63465;50.862;6.220;2023-03-05T14:56:16;11.73;;;7.43;;
74904;SDS011;63465;50.862;6.220;2023-03-05T14:58:47;19.20;;;9.30;;
74904;SDS011;63465;50.862;6.220;2023-03-05T15:01:15;14.10;;;8.57;;
74904;SDS011;63465;50.862;6.220;2023-03-05T15:03:42;13.43;;;9.03;;
74904;SDS011;63465;50.862;6.220;2023-03-05T15:08:42;11.73;;;8.00;;
74904;SDS011;63465;50.862;6.220;2023-03-05T15:11:09;15.10;;;8.60;;
74904;SDS011;63465;50.862;6.220;2023-03-05T15:13:36;14.97;;;9.17;;
74904;SDS011;63465;50.862;6.220;2023-03-05T15:16:03;15.03;;;8.10;;
74904;SDS011;63465;50.862;6.220;2023-03-05T15:18:32;11.20;;;7.97;;
74904;SDS011;63465;50.862;6.220;2023-03-05T15:20:59;15.03;;;7.87;;
74904;SDS011;63465;50.862;6.220;2023-03-05T15:23:26;12.07;;;7.97;;